Terminal Aerodrome Forecast
Issued by NWS

Home | Current Version | Previous Version | Graphics & Text | Print | Product List | Glossary On
Versions: 1 2 3 4 5 6 7 8 9 10 11 12 13 14 15 16 17 18
000
FTUS43 KIWX 282339
TAFSBN
TAF
KSBN 282339Z 2900/2924 17005KT P6SM BKN100
     FM290600 15004KT P6SM OVC050
     FM290900 12004KT P6SM -RA OVC035
     FM291300 13010KT 4SM -RA BR OVC020
      TEMPO 2915/2919 2SM -RA BR OVC010=

USA.gov is the U.S. government's official web portal to all federal, state and local government web resources and services.